createdAt,value
2022-12-25T00:01:17.840Z,80.87
2022-12-25T00:03:45.046Z,81.27
2022-12-25T00:06:12.226Z,81.45
2022-12-25T00:08:40.347Z,81.24
2022-12-25T00:11:10.815Z,81.28
2022-12-25T00:13:38.464Z,81.60
2022-12-25T00:16:13.455Z,81.96
2022-12-25T00:18:40.526Z,81.84
2022-12-25T00:21:07.615Z,81.88
2022-12-25T00:23:35.430Z,81.88
2022-12-25T00:26:11.135Z,82.28
2022-12-25T00:28:38.345Z,81.88
2022-12-25T00:31:11.214Z,81.91
2022-12-25T00:33:40.270Z,82.02
2022-12-25T00:36:08.482Z,80.88
2022-12-25T00:38:36.917Z,82.22
2022-12-25T00:41:12.189Z,81.70
2022-12-25T00:43:41.707Z,80.96
2022-12-25T00:46:10.446Z,81.84
2022-12-25T00:48:37.651Z,81.31
2022-12-25T00:51:07.052Z,81.44
2022-12-25T00:53:34.106Z,81.40
2022-12-25T00:56:05.784Z,82.05
2022-12-25T00:58:34.665Z,81.54
2022-12-25T01:01:02.937Z,81.54
2022-12-25T01:03:31.524Z,81.47
2022-12-25T01:06:00.976Z,81.83
2022-12-25T01:08:30.235Z,81.78
2022-12-25T01:10:58.998Z,81.43
2022-12-25T01:13:26.319Z,82.12
2022-12-25T01:15:54.363Z,81.88
2022-12-25T01:18:22.890Z,81.61
2022-12-25T01:20:50.089Z,81.82
2022-12-25T01:23:17.168Z,81.56
2022-12-25T01:25:44.222Z,82.15
2022-12-25T01:28:11.292Z,81.96
2022-12-25T01:30:39.468Z,82.36
2022-12-25T01:33:06.664Z,82.46
2022-12-25T01:35:33.728Z,82.40
2022-12-25T01:38:00.930Z,82.48
2022-12-25T01:40:28.083Z,82.77
2022-12-25T01:42:55.168Z,82.68
2022-12-25T01:45:41.206Z,83.03
2022-12-25T01:48:13.317Z,83.32
2022-12-25T01:50:42.521Z,83.33
2022-12-25T01:53:09.759Z,82.98
2022-12-25T01:55:37.572Z,82.92
2022-12-25T01:58:04.795Z,82.87
2022-12-25T02:00:31.976Z,82.78
2022-12-25T02:02:59.223Z,83.03
2022-12-25T02:05:29.941Z,82.76
2022-12-25T02:08:01.325Z,82.92
2022-12-25T02:10:28.754Z,83.32
2022-12-25T02:12:56.155Z,82.99
2022-12-25T02:15:28.102Z,83.23
2022-12-25T02:18:07.206Z,83.47
2022-12-25T02:20:41.593Z,83.71
2022-12-25T02:23:56.882Z,83.29
2022-12-25T02:26:33.102Z,83.55
2022-12-25T02:29:05.321Z,83.24
2022-12-25T02:31:40.006Z,83.38
2022-12-25T02:34:30.183Z,83.34
2022-12-25T02:37:06.245Z,83.42
2022-12-25T02:39:58.866Z,82.83
2022-12-25T02:43:02.850Z,83.24
2022-12-25T02:45:54.698Z,83.12
2022-12-25T02:48:42.745Z,83.53
2022-12-25T02:51:35.473Z,83.86
2022-12-25T02:54:25.494Z,83.98
2022-12-25T02:57:12.979Z,83.89
2022-12-25T02:59:59.255Z,84.04
2022-12-25T03:02:46.731Z,83.63
2022-12-25T03:05:34.893Z,83.61
2022-12-25T03:08:05.848Z,83.33
2022-12-25T03:10:53.809Z,83.91
2022-12-25T03:13:23.659Z,83.71
2022-12-25T03:16:09.269Z,83.43
2022-12-25T03:18:36.724Z,83.64
2022-12-25T03:21:22.530Z,84.01
2022-12-25T03:24:09.608Z,83.88
2022-12-25T03:26:55.220Z,83.39
2022-12-25T03:29:46.041Z,83.14
2022-12-25T03:32:25.914Z,83.54
2022-12-25T03:35:20.247Z,84.08
2022-12-25T03:38:15.102Z,83.92
2022-12-25T03:41:11.563Z,83.78
2022-12-25T03:44:08.686Z,83.70
2022-12-25T03:46:55.793Z,83.89
2022-12-25T03:49:45.750Z,83.60
2022-12-25T03:52:33.442Z,83.81
2022-12-25T03:55:21.889Z,83.86
2022-12-25T03:58:07.735Z,84.26
2022-12-25T04:00:53.128Z,83.82
2022-12-25T04:03:38.863Z,84.27
2022-12-25T04:06:24.709Z,83.94
2022-12-25T04:09:10.729Z,84.44
2022-12-25T04:12:02.237Z,84.49
2022-12-25T04:14:49.091Z,84.25
2022-12-25T04:17:34.657Z,84.97
2022-12-25T04:20:20.196Z,85.26
2022-12-25T04:23:05.809Z,85.21
2022-12-25T04:25:51.242Z,85.40
2022-12-25T04:28:41.227Z,85.17
2022-12-25T04:31:26.966Z,85.12
2022-12-25T04:34:12.640Z,84.87
2022-12-25T04:36:39.707Z,85.23
2022-12-25T04:39:06.770Z,84.64
2022-12-25T04:41:33.872Z,85.04
2022-12-25T04:44:00.915Z,85.03
2022-12-25T04:46:28.064Z,85.08
2022-12-25T04:48:55.190Z,85.00
2022-12-25T04:51:24.285Z,84.80
2022-12-25T04:53:52.745Z,85.01
2022-12-25T04:56:20.412Z,84.78
2022-12-25T04:58:47.469Z,84.81
2022-12-25T05:01:15.241Z,84.52
2022-12-25T05:03:42.726Z,84.79
2022-12-25T05:06:09.835Z,85.11
2022-12-25T05:08:37.274Z,85.25
2022-12-25T05:11:09.804Z,84.91
2022-12-25T05:13:36.898Z,85.71
2022-12-25T05:16:08.643Z,85.50
2022-12-25T05:18:36.120Z,85.75
2022-12-25T05:21:03.985Z,85.53
2022-12-25T05:23:31.195Z,85.69
2022-12-25T05:25:58.434Z,85.34
2022-12-25T05:28:25.599Z,85.38
2022-12-25T05:30:56.679Z,85.45
2022-12-25T05:33:23.741Z,85.92
2022-12-25T05:35:50.864Z,86.01
2022-12-25T05:38:17.897Z,85.62
2022-12-25T05:40:45.001Z,85.88
2022-12-25T05:43:12.044Z,86.07
2022-12-25T05:45:39.169Z,85.82
2022-12-25T05:48:06.634Z,85.60
2022-12-25T05:50:39.291Z,86.21
2022-12-25T05:53:08.961Z,86.20
2022-12-25T05:55:36.974Z,86.58
2022-12-25T05:58:05.010Z,86.31
2022-12-25T06:00:32.193Z,86.56
2022-12-25T06:02:59.476Z,86.03
2022-12-25T06:05:26.786Z,86.13
2022-12-25T06:07:53.855Z,85.86
2022-12-25T06:10:21.014Z,86.31
2022-12-25T06:12:48.131Z,86.51
2022-12-25T06:15:15.472Z,85.97
2022-12-25T06:17:42.510Z,85.87
2022-12-25T06:20:09.882Z,86.17
2022-12-25T06:22:36.921Z,85.96
2022-12-25T06:25:04.320Z,86.18
2022-12-25T06:27:31.398Z,85.98
2022-12-25T06:29:58.433Z,85.80
2022-12-25T06:32:25.502Z,85.45
2022-12-25T06:34:52.569Z,85.62
2022-12-25T06:37:19.852Z,85.46
2022-12-25T06:39:47.966Z,85.59
2022-12-25T06:42:14.999Z,85.33
2022-12-25T06:44:42.105Z,85.35
2022-12-25T06:47:09.272Z,84.91
2022-12-25T06:49:36.436Z,84.72
2022-12-25T06:52:03.512Z,85.20
2022-12-25T06:54:30.529Z,85.26
2022-12-25T06:56:57.594Z,85.04
2022-12-25T06:59:25.094Z,85.29
2022-12-25T07:01:58.442Z,85.19
2022-12-25T07:04:35.620Z,84.92
2022-12-25T07:07:08.445Z,84.67
2022-12-25T07:09:38.638Z,85.00
2022-12-25T07:12:21.679Z,85.03
2022-12-25T07:14:50.227Z,84.72
2022-12-25T07:17:17.865Z,84.97
2022-12-25T07:19:46.509Z,84.46
2022-12-25T07:22:14.198Z,84.76
2022-12-25T07:24:41.568Z,84.60
2022-12-25T07:27:09.030Z,84.79
2022-12-25T07:29:36.086Z,84.75
2022-12-25T07:32:03.234Z,84.50
2022-12-25T07:34:30.939Z,84.55
2022-12-25T07:36:57.985Z,84.74
2022-12-25T07:39:25.087Z,85.03
2022-12-25T07:41:52.141Z,84.81
2022-12-25T07:44:19.256Z,85.37
2022-12-25T07:46:46.434Z,85.14
2022-12-25T07:49:13.512Z,85.45
2022-12-25T07:51:40.615Z,85.27
2022-12-25T07:54:07.674Z,84.67
2022-12-25T07:56:34.831Z,84.96
2022-12-25T07:59:01.895Z,85.79
2022-12-25T08:01:29.943Z,86.20
2022-12-25T08:03:59.766Z,85.94
2022-12-25T08:06:30.167Z,85.54
2022-12-25T08:08:58.422Z,85.16
2022-12-25T08:11:25.487Z,85.20
2022-12-25T08:13:52.614Z,85.07
2022-12-25T08:16:19.693Z,85.89
2022-12-25T08:18:46.887Z,86.04
2022-12-25T08:21:15.059Z,85.83
2022-12-25T08:23:43.609Z,86.11
2022-12-25T08:26:13.221Z,85.93
2022-12-25T08:28:40.411Z,85.72
2022-12-25T08:31:18.225Z,85.56
2022-12-25T08:33:45.763Z,85.92
2022-12-25T08:36:13.274Z,85.56
2022-12-25T08:38:40.946Z,86.82
2022-12-25T08:41:08.634Z,87.28
2022-12-25T08:43:36.059Z,88.24
2022-12-25T08:46:03.668Z,88.22
2022-12-25T08:48:30.791Z,88.00
2022-12-25T08:50:57.897Z,87.44
2022-12-25T08:53:25.241Z,86.36
2022-12-25T08:56:06.432Z,85.26
2022-12-25T08:58:33.954Z,84.65
2022-12-25T09:01:01.081Z,83.93
2022-12-25T09:03:28.431Z,83.90
2022-12-25T09:05:55.541Z,83.63
2022-12-25T09:08:22.999Z,83.60
2022-12-25T09:10:50.082Z,83.49
2022-12-25T09:13:17.097Z,83.41
2022-12-25T09:15:44.201Z,83.16
2022-12-25T09:18:11.255Z,82.79
2022-12-25T09:20:38.298Z,82.87
2022-12-25T09:23:11.670Z,82.41
2022-12-25T09:25:40.770Z,82.58
2022-12-25T09:28:07.857Z,82.15
2022-12-25T09:30:34.939Z,82.48
2022-12-25T09:33:02.010Z,82.42
2022-12-25T09:35:29.092Z,81.79
2022-12-25T09:37:56.129Z,81.33
2022-12-25T09:40:24.897Z,80.21
2022-12-25T09:42:53.941Z,80.25
2022-12-25T09:45:34.968Z,80.32
2022-12-25T09:48:02.163Z,79.49
2022-12-25T09:50:49.384Z,79.66
2022-12-25T09:53:20.755Z,79.24
2022-12-25T09:56:12.104Z,78.74
2022-12-25T09:58:39.460Z,78.31
2022-12-25T10:01:16.015Z,77.52
2022-12-25T10:04:18.503Z,75.96
2022-12-25T10:07:00.398Z,76.41
2022-12-25T10:09:55.018Z,74.69
2022-12-25T10:12:32.335Z,74.94
2022-12-25T10:15:16.311Z,73.52
2022-12-25T10:18:17.948Z,73.42
2022-12-25T10:20:52.414Z,73.93
2022-12-25T10:23:23.857Z,73.52
2022-12-25T10:25:51.924Z,73.30
2022-12-25T10:28:30.285Z,72.69
2022-12-25T10:31:00.361Z,72.91
2022-12-25T10:33:27.526Z,74.16
2022-12-25T10:35:54.596Z,73.15
2022-12-25T10:38:22.434Z,73.13
2022-12-25T10:41:21.515Z,72.68
2022-12-25T10:43:57.303Z,72.93
2022-12-25T10:46:26.772Z,72.62
2022-12-25T10:48:56.868Z,72.40
2022-12-25T10:51:37.917Z,71.61
2022-12-25T10:54:24.479Z,72.09
2022-12-25T10:56:56.810Z,71.76
2022-12-25T10:59:26.360Z,71.88
2022-12-25T11:01:55.665Z,72.25
2022-12-25T11:04:26.452Z,72.30
2022-12-25T11:07:02.888Z,72.69
2022-12-25T11:09:29.947Z,72.58
2022-12-25T11:11:57.027Z,71.31
2022-12-25T11:14:24.080Z,71.91
2022-12-25T11:16:51.227Z,71.59
2022-12-25T11:19:30.024Z,71.72
2022-12-25T11:21:59.580Z,72.45
2022-12-25T11:24:28.965Z,72.12
2022-12-25T11:27:01.355Z,72.29
2022-12-25T11:29:36.620Z,72.42
2022-12-25T11:32:05.424Z,72.36
2022-12-25T11:34:41.855Z,72.01
2022-12-25T11:37:14.962Z,72.01
2022-12-25T11:39:42.071Z,72.24
2022-12-25T11:42:18.490Z,71.97
2022-12-25T11:44:51.713Z,72.38
2022-12-25T11:47:26.323Z,72.77
2022-12-25T11:50:01.031Z,72.45
2022-12-25T11:52:33.840Z,73.01
2022-12-25T11:55:10.324Z,73.05
2022-12-25T11:57:37.979Z,72.71
2022-12-25T12:00:09.420Z,73.33
2022-12-25T12:02:45.489Z,73.17
2022-12-25T12:05:39.169Z,73.59
2022-12-25T12:08:06.616Z,72.77
2022-12-25T12:10:48.089Z,72.32
2022-12-25T12:13:47.664Z,72.87
2022-12-25T12:16:14.790Z,71.76
2022-12-25T12:18:48.093Z,72.72
2022-12-25T12:21:27.189Z,71.61
2022-12-25T12:24:05.472Z,71.24
2022-12-25T12:26:40.786Z,70.76
2022-12-25T12:29:22.038Z,69.71
2022-12-25T12:31:49.943Z,70.05
2022-12-25T12:34:20.825Z,70.63
2022-12-25T12:36:49.087Z,70.09
2022-12-25T12:39:25.782Z,69.69
2022-12-25T12:41:52.890Z,69.82
2022-12-25T12:44:20.416Z,69.96
2022-12-25T12:46:53.733Z,70.39
2022-12-25T12:49:23.336Z,70.17
2022-12-25T12:51:51.107Z,70.74
2022-12-25T12:54:25.753Z,70.66
2022-12-25T12:57:09.448Z,70.62
2022-12-25T12:59:43.549Z,70.50
2022-12-25T13:02:42.966Z,70.44
2022-12-25T13:05:34.178Z,70.45
2022-12-25T13:08:14.123Z,70.65
2022-12-25T13:10:49.228Z,70.69
2022-12-25T13:13:29.114Z,71.03
2022-12-25T13:15:57.888Z,71.08
2022-12-25T13:18:24.995Z,70.98
2022-12-25T13:21:00.976Z,71.01
2022-12-25T13:23:33.300Z,70.87
2022-12-25T13:26:01.435Z,71.09
2022-12-25T13:28:33.504Z,71.24
2022-12-25T13:31:09.727Z,70.66
2022-12-25T13:33:38.660Z,70.75
2022-12-25T13:36:10.476Z,70.54
2022-12-25T13:38:38.584Z,70.64
2022-12-25T13:41:24.308Z,70.92
2022-12-25T13:43:51.398Z,71.29
2022-12-25T13:46:26.257Z,70.92
2022-12-25T13:49:00.693Z,71.34
2022-12-25T13:51:28.403Z,71.31
2022-12-25T13:54:06.719Z,71.13
2022-12-25T13:56:34.920Z,71.12
2022-12-25T13:59:03.592Z,71.39
2022-12-25T14:01:30.784Z,71.37
2022-12-25T14:03:57.905Z,71.65
2022-12-25T14:06:27.698Z,71.89
2022-12-25T14:08:55.984Z,71.94
2022-12-25T14:11:25.066Z,72.03
2022-12-25T14:13:54.665Z,72.37
2022-12-25T14:16:21.980Z,72.15
2022-12-25T14:18:58.067Z,72.34
2022-12-25T14:21:29.130Z,72.32
2022-12-25T14:23:56.520Z,72.24
2022-12-25T14:26:26.541Z,72.65
2022-12-25T14:29:05.735Z,72.70
2022-12-25T14:31:33.266Z,72.63
2022-12-25T14:34:01.559Z,72.88
2022-12-25T14:36:29.278Z,72.67
2022-12-25T14:39:01.685Z,72.84
2022-12-25T14:41:34.498Z,73.21
2022-12-25T14:44:03.488Z,73.54
2022-12-25T14:46:32.239Z,73.25
2022-12-25T14:49:07.249Z,73.50
2022-12-25T14:51:38.167Z,73.60
2022-12-25T14:54:13.569Z,73.73
2022-12-25T14:56:46.738Z,73.90
2022-12-25T14:59:17.358Z,74.07
2022-12-25T15:01:50.439Z,74.34
2022-12-25T15:04:18.377Z,74.34
2022-12-25T15:07:07.195Z,74.21
2022-12-25T15:09:35.890Z,74.52
2022-12-25T15:12:03.016Z,74.49
2022-12-25T15:14:31.507Z,74.75
2022-12-25T15:17:00.825Z,74.97
2022-12-25T15:19:36.467Z,75.04
2022-12-25T15:22:04.807Z,74.93
2022-12-25T15:24:32.057Z,74.91
2022-12-25T15:27:00.632Z,75.02
2022-12-25T15:30:07.219Z,74.84
2022-12-25T15:32:20.257Z,74.78
2022-12-25T15:34:49.851Z,74.77
2022-12-25T15:37:17.905Z,74.71
2022-12-25T15:39:45.347Z,74.51
2022-12-25T15:42:17.910Z,74.36
2022-12-25T15:44:45.386Z,74.31
2022-12-25T15:47:13.806Z,74.08
2022-12-25T15:49:41.345Z,74.42
2022-12-25T15:52:11.471Z,74.53
2022-12-25T15:54:38.608Z,74.81
2022-12-25T15:57:07.047Z,74.63
2022-12-25T15:59:34.210Z,75.38
2022-12-25T16:02:01.896Z,75.06
2022-12-25T16:04:32.060Z,75.28
2022-12-25T16:06:59.582Z,75.90
2022-12-25T16:09:27.522Z,76.43
2022-12-25T16:11:54.846Z,76.72
2022-12-25T16:14:21.976Z,77.13
2022-12-25T16:16:51.084Z,77.88
2022-12-25T16:19:18.318Z,77.66
2022-12-25T16:21:46.244Z,77.95
2022-12-25T16:24:14.073Z,78.41
2022-12-25T16:26:41.202Z,78.24
2022-12-25T16:29:08.351Z,78.48
2022-12-25T16:31:36.597Z,79.19
2022-12-25T16:34:04.715Z,78.89
2022-12-25T16:36:32.312Z,78.82
2022-12-25T16:38:59.346Z,78.78
2022-12-25T16:41:26.485Z,78.96
2022-12-25T16:43:53.532Z,78.74
2022-12-25T16:46:22.215Z,78.87
2022-12-25T16:48:49.338Z,78.70
2022-12-25T16:51:19.276Z,78.79
2022-12-25T16:53:46.784Z,78.69
2022-12-25T16:56:16.131Z,78.70
2022-12-25T16:58:46.965Z,78.70
2022-12-25T17:01:16.489Z,78.97
2022-12-25T17:03:43.610Z,78.94
2022-12-25T17:06:23.003Z,79.35
2022-12-25T17:08:51.957Z,79.78
2022-12-25T17:11:23.581Z,79.98
2022-12-25T17:13:50.797Z,80.17
2022-12-25T17:16:20.449Z,80.56
2022-12-25T17:18:47.556Z,80.66
2022-12-25T17:21:14.809Z,80.75
2022-12-25T17:23:41.906Z,81.11
2022-12-25T17:26:08.983Z,80.82
2022-12-25T17:28:36.083Z,81.16
2022-12-25T17:31:08.314Z,81.09
2022-12-25T17:33:36.384Z,81.15
2022-12-25T17:36:05.534Z,81.79
2022-12-25T17:38:33.687Z,82.11
2022-12-25T17:41:02.361Z,82.61
2022-12-25T17:43:29.553Z,82.84
2022-12-25T17:45:56.605Z,82.38
2022-12-25T17:48:23.685Z,82.85
2022-12-25T17:50:50.727Z,82.41
2022-12-25T17:53:19.246Z,81.77
2022-12-25T17:55:46.288Z,80.66
2022-12-25T17:58:13.319Z,79.74
2022-12-25T18:00:40.401Z,79.28
2022-12-25T18:03:11.651Z,79.12
2022-12-25T18:05:39.249Z,79.20
2022-12-25T18:08:06.301Z,79.12
2022-12-25T18:10:37.771Z,79.40
2022-12-25T18:13:04.860Z,79.16
2022-12-25T18:15:32.022Z,79.34
2022-12-25T18:17:59.118Z,79.43
2022-12-25T18:20:26.282Z,79.33
2022-12-25T18:22:53.369Z,79.11
2022-12-25T18:25:20.441Z,79.17
2022-12-25T18:27:47.493Z,79.01
2022-12-25T18:30:14.698Z,78.89
2022-12-25T18:32:41.792Z,78.82
2022-12-25T18:35:09.573Z,78.27
2022-12-25T18:37:40.241Z,78.10
2022-12-25T18:40:08.251Z,77.85
2022-12-25T18:42:41.263Z,77.79
2022-12-25T18:45:14.882Z,77.23
2022-12-25T18:47:42.058Z,77.08
2022-12-25T18:50:10.596Z,76.90
2022-12-25T18:52:49.658Z,76.01
2022-12-25T18:55:20.361Z,75.51
2022-12-25T18:57:48.152Z,75.56
2022-12-25T19:00:15.329Z,75.04
2022-12-25T19:02:42.552Z,74.65
2022-12-25T19:05:09.743Z,74.50
2022-12-25T19:07:38.395Z,74.08
2022-12-25T19:10:06.218Z,73.84
2022-12-25T19:12:33.319Z,73.33
2022-12-25T19:15:02.434Z,73.49
2022-12-25T19:17:31.776Z,73.79
2022-12-25T19:19:59.359Z,73.79
2022-12-25T19:22:26.425Z,73.64
2022-12-25T19:24:53.504Z,73.82
2022-12-25T19:27:20.545Z,73.66
2022-12-25T19:29:47.580Z,73.49
2022-12-25T19:32:14.689Z,73.57
2022-12-25T19:34:41.754Z,73.43
2022-12-25T19:37:08.805Z,73.26
2022-12-25T19:39:35.861Z,72.94
2022-12-25T19:42:02.905Z,73.28
2022-12-25T19:44:30.122Z,73.28
2022-12-25T19:46:57.206Z,72.75
2022-12-25T19:49:24.235Z,72.88
2022-12-25T19:51:51.278Z,72.76
2022-12-25T19:54:20.622Z,73.29
2022-12-25T19:56:48.265Z,73.02
2022-12-25T19:59:15.588Z,73.04
2022-12-25T20:01:43.376Z,72.60
2022-12-25T20:04:11.143Z,72.33
2022-12-25T20:06:39.276Z,72.63
2022-12-25T20:09:15.035Z,72.59
2022-12-25T20:11:43.482Z,72.93
2022-12-25T20:14:13.025Z,72.60
2022-12-25T20:16:40.471Z,72.49
2022-12-25T20:19:08.199Z,72.30
2022-12-25T20:21:35.481Z,71.81
2022-12-25T20:24:02.608Z,71.96
2022-12-25T20:26:30.637Z,71.58
2022-12-25T20:28:58.693Z,71.27
2022-12-25T20:31:28.327Z,71.31
2022-12-25T20:33:57.402Z,71.17
2022-12-25T20:36:24.704Z,71.42
2022-12-25T20:38:52.508Z,70.96
2022-12-25T20:41:26.735Z,70.88
2022-12-25T20:43:55.093Z,70.76
2022-12-25T20:46:22.937Z,70.48
2022-12-25T20:48:50.100Z,70.23
2022-12-25T20:51:22.259Z,70.18
2022-12-25T20:53:50.076Z,69.91
2022-12-25T20:56:19.823Z,69.70
2022-12-25T20:58:47.224Z,69.59
2022-12-25T21:01:17.415Z,69.03
2022-12-25T21:03:45.315Z,69.22
2022-12-25T21:06:12.553Z,69.27
2022-12-25T21:08:41.005Z,68.55
2022-12-25T21:11:08.963Z,68.55
2022-12-25T21:13:38.684Z,69.04
2022-12-25T21:16:08.305Z,68.74
2022-12-25T21:18:35.476Z,68.00
2022-12-25T21:21:05.744Z,67.48
2022-12-25T21:23:37.260Z,67.52
2022-12-25T21:26:18.363Z,67.67
2022-12-25T21:28:46.835Z,68.00
2022-12-25T21:31:14.100Z,67.44
2022-12-25T21:33:53.475Z,67.57
2022-12-25T21:36:33.611Z,67.89
2022-12-25T21:39:05.596Z,67.74
2022-12-25T21:41:34.150Z,68.14
2022-12-25T21:44:02.836Z,68.27
2022-12-25T21:46:30.301Z,68.02
2022-12-25T21:48:57.848Z,68.12
2022-12-25T21:51:51.153Z,68.44
2022-12-25T21:54:19.605Z,68.59
2022-12-25T21:56:47.631Z,68.02
2022-12-25T21:59:16.909Z,68.43
2022-12-25T22:01:44.851Z,68.14
2022-12-25T22:04:13.621Z,68.36
2022-12-25T22:07:00.200Z,68.53
2022-12-25T22:09:27.574Z,68.55
2022-12-25T22:12:13.044Z,68.42
2022-12-25T22:14:57.115Z,68.71
2022-12-25T22:17:47.727Z,69.05
2022-12-25T22:20:23.179Z,68.74
2022-12-25T22:22:50.580Z,68.83
2022-12-25T22:25:17.922Z,69.21
2022-12-25T22:27:45.665Z,69.09
2022-12-25T22:30:15.731Z,69.04
2022-12-25T22:32:42.918Z,68.96
2022-12-25T22:35:12.607Z,69.45
2022-12-25T22:37:41.140Z,69.23
2022-12-25T22:40:10.060Z,69.67
2022-12-25T22:42:37.923Z,69.88
2022-12-25T22:45:05.355Z,70.14
2022-12-25T22:47:32.440Z,70.13
2022-12-25T22:50:00.800Z,69.85
2022-12-25T22:52:27.870Z,70.41
2022-12-25T22:54:54.942Z,70.42
2022-12-25T22:57:22.046Z,70.77
2022-12-25T22:59:51.896Z,70.55
2022-12-25T23:02:19.273Z,71.00
2022-12-25T23:04:46.544Z,71.05
2022-12-25T23:07:14.605Z,70.97
2022-12-25T23:09:42.878Z,70.93
2022-12-25T23:12:30.732Z,71.44
2022-12-25T23:14:57.918Z,71.25
2022-12-25T23:17:44.273Z,71.28
2022-12-25T23:20:32.902Z,71.24
2022-12-25T23:23:19.262Z,71.26
2022-12-25T23:26:05.296Z,71.70
2022-12-25T23:28:50.647Z,71.67
2022-12-25T23:31:18.131Z,71.34
2022-12-25T23:33:45.212Z,71.64
2022-12-25T23:36:12.284Z,71.60
2022-12-25T23:38:39.599Z,71.52
2022-12-25T23:41:07.953Z,71.67
2022-12-25T23:43:34.991Z,71.89
2022-12-25T23:46:02.103Z,72.17
2022-12-25T23:48:29.361Z,72.28
2022-12-25T23:50:56.585Z,72.06
2022-12-25T23:53:23.689Z,72.53
2022-12-25T23:55:55.641Z,72.53
2022-12-25T23:58:24.135Z,72.43
